createdAt,value
2017-11-27T00:00:22.276Z,8.31
2017-11-27T00:01:02.958Z,8.4
2017-11-27T00:01:43.320Z,8.39
2017-11-27T00:02:23.734Z,8.45
2017-11-27T00:03:04.145Z,8.39
2017-11-27T00:03:44.546Z,8.58
2017-11-27T00:04:26.513Z,8.46
2017-11-27T00:05:07.775Z,8.47
2017-11-27T00:05:48.732Z,8.42
2017-11-27T00:06:29.142Z,8.43
2017-11-27T00:07:10.538Z,8.31
2017-11-27T00:07:50.996Z,8.29
2017-11-27T00:08:31.653Z,8.36
2017-11-27T00:09:13.223Z,8.36
2017-11-27T00:09:53.509Z,8.4
2017-11-27T00:10:33.917Z,8.47
2017-11-27T00:11:14.334Z,8.52
2017-11-27T00:11:54.790Z,8.49
2017-11-27T00:12:35.759Z,8.54
2017-11-27T00:13:16.969Z,8.47
2017-11-27T00:13:57.533Z,8.49
2017-11-27T00:16:12.771Z,8.54
2017-11-27T00:17:00.135Z,8.52
2017-11-27T00:17:41.098Z,8.55
2017-11-27T00:18:21.429Z,8.57
2017-11-27T00:19:01.876Z,8.58
2017-11-27T00:19:42.592Z,8.57
2017-11-27T00:20:23.011Z,8.57
2017-11-27T00:21:03.409Z,8.52
2017-11-27T00:21:44.109Z,8.47
2017-11-27T00:22:25.598Z,8.4
2017-11-27T00:23:05.528Z,8.46
2017-11-27T00:23:47.037Z,8.4
2017-11-27T00:24:27.903Z,8.34
2017-11-27T00:25:08.487Z,8.42
2017-11-27T00:25:49.755Z,8.42
2017-11-27T00:26:30.883Z,8.34
2017-11-27T00:27:11.345Z,8.29
2017-11-27T00:27:52.359Z,8.29
2017-11-27T00:28:32.751Z,8.31
2017-11-27T00:29:13.782Z,8.32
2017-11-27T00:29:54.371Z,8.36
2017-11-27T00:30:35.741Z,8.32
2017-11-27T00:31:16.134Z,8.37
2017-11-27T00:31:56.651Z,8.28
2017-11-27T00:32:39.601Z,8.37
2017-11-27T00:33:20.917Z,8.43
2017-11-27T00:34:01.731Z,8.36
2017-11-27T00:34:42.385Z,8.4
2017-11-27T00:35:23.622Z,8.34
2017-11-27T00:36:04.337Z,8.52
2017-11-27T00:36:44.658Z,8.52
2017-11-27T00:37:25.660Z,8.39
2017-11-27T00:38:05.490Z,8.42
2017-11-27T00:38:46.303Z,8.36
2017-11-27T00:39:27.543Z,8.32
2017-11-27T00:40:08.128Z,8.18
2017-11-27T00:40:48.964Z,8.24
2017-11-27T00:41:29.308Z,8.2
2017-11-27T00:42:09.694Z,8.17
2017-11-27T00:42:50.929Z,8.27
2017-11-27T00:43:31.307Z,8.29
2017-11-27T00:44:11.667Z,8.24
2017-11-27T00:44:52.062Z,8.37
2017-11-27T00:45:32.483Z,8.4
2017-11-27T00:46:13.962Z,8.5
2017-11-27T00:46:54.297Z,8.52
2017-11-27T00:47:34.678Z,8.5
2017-11-27T00:48:18.159Z,8.63
2017-11-27T00:49:00.110Z,8.55
2017-11-27T00:49:40.324Z,8.55
2017-11-27T00:50:21.175Z,8.57
2017-11-27T00:51:01.150Z,8.46
2017-11-27T00:51:41.753Z,8.5
2017-11-27T00:52:22.134Z,8.4
2017-11-27T00:53:02.561Z,8.4
2017-11-27T00:53:43.589Z,8.39
2017-11-27T00:54:23.382Z,8.39
2017-11-27T00:55:05.186Z,8.39
2017-11-27T00:55:45.125Z,8.42
2017-11-27T00:56:25.469Z,8.5
2017-11-27T00:57:05.975Z,8.47
2017-11-27T00:57:47.054Z,8.52
2017-11-27T00:58:27.509Z,8.49
2017-11-27T00:59:07.915Z,8.55
2017-11-27T00:59:48.398Z,8.45
2017-11-27T01:00:28.958Z,8.49
2017-11-27T01:01:09.515Z,8.55
2017-11-27T01:01:50.095Z,8.57
2017-11-27T01:02:30.377Z,8.57
2017-11-27T01:03:10.961Z,8.55
2017-11-27T01:03:51.251Z,8.6
2017-11-27T01:04:32.183Z,8.55
2017-11-27T01:05:12.609Z,8.57
2017-11-27T01:05:54.628Z,8.6
2017-11-27T01:06:34.910Z,8.55
2017-11-27T01:07:15.574Z,8.6
2017-11-27T01:07:55.863Z,8.55
2017-11-27T01:08:36.320Z,8.67
2017-11-27T01:09:16.718Z,8.64
2017-11-27T01:09:57.103Z,8.6
2017-11-27T01:10:37.526Z,8.68
2017-11-27T01:11:17.955Z,8.78
2017-11-27T01:11:58.622Z,8.78
2017-11-27T01:12:39.013Z,8.79
2017-11-27T01:13:19.668Z,8.67
2017-11-27T01:13:59.973Z,8.61
2017-11-27T01:14:40.428Z,8.67
2017-11-27T01:15:20.790Z,8.64
2017-11-27T01:16:01.141Z,8.63
2017-11-27T01:16:42.116Z,8.63
2017-11-27T01:17:22.117Z,8.64
2017-11-27T01:18:02.594Z,8.61
2017-11-27T01:18:43.188Z,8.57
2017-11-27T01:19:23.311Z,8.63
2017-11-27T01:20:03.745Z,8.65
2017-11-27T01:20:44.231Z,8.67
2017-11-27T01:21:24.772Z,8.78
2017-11-27T01:22:05.072Z,8.73
2017-11-27T01:22:45.448Z,8.6
2017-11-27T01:23:25.805Z,8.63
2017-11-27T01:24:06.285Z,8.78
2017-11-27T01:24:46.716Z,8.64
2017-11-27T01:25:27.233Z,8.55
2017-11-27T01:26:07.559Z,8.49
2017-11-27T01:26:48.030Z,8.6
2017-11-27T01:27:28.481Z,8.42
2017-11-27T01:28:08.842Z,8.61
2017-11-27T01:28:49.361Z,8.61
2017-11-27T01:29:29.641Z,8.54
2017-11-27T01:30:10.447Z,8.54
2017-11-27T01:30:50.528Z,8.54
2017-11-27T01:31:30.855Z,8.58
2017-11-27T01:32:11.258Z,8.63
2017-11-27T01:32:51.622Z,8.57
2017-11-27T01:33:31.996Z,8.64
2017-11-27T01:34:12.467Z,8.6
2017-11-27T01:34:53.151Z,8.61
2017-11-27T01:35:33.391Z,8.5
2017-11-27T01:36:13.851Z,8.58
2017-11-27T01:36:54.167Z,8.5
2017-11-27T01:37:34.645Z,8.6
2017-11-27T01:38:15.143Z,8.55
2017-11-27T01:38:55.771Z,8.54
2017-11-27T01:39:36.026Z,8.58
2017-11-27T01:40:16.425Z,8.5
2017-11-27T01:40:56.890Z,8.55
2017-11-27T01:41:37.314Z,8.54
2017-11-27T01:42:17.700Z,8.52
2017-11-27T01:42:58.090Z,8.61
2017-11-27T01:43:38.531Z,8.49
2017-11-27T01:44:18.899Z,8.57
2017-11-27T01:44:59.352Z,8.54
2017-11-27T01:45:39.881Z,8.55
2017-11-27T01:46:20.138Z,8.57
2017-11-27T01:47:00.802Z,8.58
2017-11-27T01:47:41.053Z,8.61
2017-11-27T01:48:21.898Z,8.64
2017-11-27T01:49:02.574Z,8.55
2017-11-27T01:49:42.988Z,8.67
2017-11-27T01:50:23.493Z,8.61
2017-11-27T01:51:03.893Z,8.57
2017-11-27T01:51:44.499Z,8.68
2017-11-27T01:52:25.046Z,8.67
2017-11-27T01:53:05.850Z,8.67
2017-11-27T01:53:46.089Z,8.71
2017-11-27T01:54:27.558Z,8.68
2017-11-27T01:55:07.277Z,8.64
2017-11-27T01:55:47.709Z,8.71
2017-11-27T01:56:28.097Z,8.65
2017-11-27T01:57:09.081Z,8.65
2017-11-27T01:57:49.526Z,8.68
2017-11-27T01:58:30.232Z,8.7
2017-11-27T01:59:10.891Z,8.73
2017-11-27T01:59:51.729Z,8.64
2017-11-27T02:00:32.292Z,8.73
2017-11-27T02:01:12.922Z,8.61
2017-11-27T02:01:53.379Z,8.71
2017-11-27T02:02:33.773Z,8.75
2017-11-27T02:03:14.187Z,8.7
2017-11-27T02:03:55.032Z,8.65
2017-11-27T02:04:38.660Z,8.75
2017-11-27T02:05:19.446Z,8.79
2017-11-27T02:06:00.589Z,8.78
2017-11-27T02:06:41.879Z,8.79
2017-11-27T02:07:22.281Z,8.71
2017-11-27T02:08:02.707Z,8.75
2017-11-27T02:08:43.113Z,8.76
2017-11-27T02:09:23.677Z,8.79
2017-11-27T02:10:04.231Z,8.8
2017-11-27T02:10:44.864Z,8.65
2017-11-27T02:11:25.196Z,8.67
2017-11-27T02:12:05.764Z,8.68
2017-11-27T02:12:46.504Z,8.67
2017-11-27T02:13:27.511Z,8.67
2017-11-27T02:14:08.135Z,8.57
2017-11-27T02:14:48.959Z,8.6
2017-11-27T02:15:29.301Z,8.58
2017-11-27T02:16:09.705Z,8.6
2017-11-27T02:16:52.273Z,8.57
2017-11-27T02:17:33.098Z,8.61
2017-11-27T02:18:14.340Z,8.57
2017-11-27T02:18:54.236Z,8.61
2017-11-27T02:19:34.924Z,8.58
2017-11-27T02:20:15.950Z,8.57
2017-11-27T02:20:58.337Z,8.54
2017-11-27T02:21:38.874Z,8.57
2017-11-27T02:22:19.307Z,8.58
2017-11-27T02:22:59.980Z,8.47
2017-11-27T02:23:40.431Z,8.5
2017-11-27T02:24:20.846Z,8.47
2017-11-27T02:25:01.227Z,8.5
2017-11-27T02:25:42.272Z,8.37
2017-11-27T02:26:22.485Z,8.49
2017-11-27T02:27:03.209Z,8.5
2017-11-27T02:27:43.593Z,8.46
2017-11-27T02:28:24.399Z,8.54
2017-11-27T02:29:04.805Z,8.57
2017-11-27T02:29:46.319Z,8.6
2017-11-27T02:30:26.602Z,8.63
2017-11-27T02:31:07.119Z,8.55
2017-11-27T02:31:47.589Z,8.6
2017-11-27T02:32:28.035Z,8.57
2017-11-27T02:33:08.523Z,8.64
2017-11-27T02:33:49.713Z,8.61
2017-11-27T02:34:30.044Z,8.5
2017-11-27T02:35:10.699Z,8.54
2017-11-27T02:35:51.291Z,8.54
2017-11-27T02:36:31.816Z,8.58
2017-11-27T02:37:12.561Z,8.46
2017-11-27T02:37:53.367Z,8.57
2017-11-27T02:38:33.947Z,8.46
2017-11-27T02:39:14.520Z,8.55
2017-11-27T02:39:55.005Z,8.57
2017-11-27T02:40:35.834Z,8.55
2017-11-27T02:41:16.130Z,8.63
2017-11-27T02:41:56.641Z,8.54
2017-11-27T02:42:37.082Z,8.55
2017-11-27T02:43:17.691Z,8.57
2017-11-27T02:43:57.969Z,8.54
2017-11-27T02:44:38.353Z,8.57
2017-11-27T02:45:18.876Z,8.58
2017-11-27T02:45:59.713Z,8.58
2017-11-27T02:46:39.804Z,8.57
2017-11-27T02:47:20.133Z,8.47
2017-11-27T02:48:00.970Z,8.46
2017-11-27T02:48:41.379Z,8.46
2017-11-27T02:49:21.772Z,8.54
2017-11-27T02:50:02.154Z,8.47
2017-11-27T02:50:42.618Z,8.5
2017-11-27T02:51:23.090Z,8.4
2017-11-27T02:52:03.828Z,8.45
2017-11-27T02:52:44.029Z,8.46
2017-11-27T02:53:24.501Z,8.49
2017-11-27T02:54:05.557Z,8.5
2017-11-27T02:54:45.930Z,8.57
2017-11-27T02:55:26.314Z,8.54
2017-11-27T02:56:06.749Z,8.49
2017-11-27T02:56:47.267Z,8.42
2017-11-27T02:57:27.700Z,8.4
2017-11-27T02:58:08.090Z,8.37
2017-11-27T02:58:48.462Z,8.52
2017-11-27T02:59:28.866Z,8.45
2017-11-27T03:00:09.322Z,8.49
2017-11-27T03:00:49.648Z,8.43
2017-11-27T03:01:30.038Z,8.31
2017-11-27T03:02:10.576Z,8.34
2017-11-27T03:02:50.940Z,8.32
2017-11-27T03:03:31.307Z,8.31
2017-11-27T03:04:11.730Z,8.31
2017-11-27T03:04:52.658Z,8.32
2017-11-27T03:05:33.860Z,8.34
2017-11-27T03:06:14.229Z,8.32
2017-11-27T03:06:54.657Z,8.24
2017-11-27T03:07:35.124Z,8.37
2017-11-27T03:08:15.690Z,8.29
2017-11-27T03:08:56.083Z,8.29
2017-11-27T03:09:36.425Z,8.28
2017-11-27T03:10:17.568Z,8.28
2017-11-27T03:10:58.515Z,8.17
2017-11-27T03:11:39.811Z,8.17
2017-11-27T03:12:20.218Z,8.25
2017-11-27T03:13:01.009Z,8.2
2017-11-27T03:13:41.386Z,8.2
2017-11-27T03:14:21.776Z,8.14
2017-11-27T03:15:02.193Z,8.07
2017-11-27T03:15:43.081Z,8.04
2017-11-27T03:16:23.917Z,8.12
2017-11-27T03:17:04.044Z,8.1
2017-11-27T03:17:44.445Z,8.06
2017-11-27T03:18:24.845Z,8.09
2017-11-27T03:19:05.320Z,8
2017-11-27T03:19:45.711Z,8.04
2017-11-27T03:20:26.113Z,8.1
2017-11-27T03:21:06.471Z,8.1
2017-11-27T03:21:46.954Z,7.96
2017-11-27T03:22:27.362Z,7.94
2017-11-27T03:23:07.733Z,7.96
2017-11-27T03:23:48.315Z,7.99
2017-11-27T03:24:28.737Z,7.91
2017-11-27T03:25:09.164Z,8.02
2017-11-27T03:25:49.552Z,7.99
2017-11-27T03:26:29.884Z,7.95
2017-11-27T03:27:10.277Z,7.95
2017-11-27T03:27:50.758Z,7.81
2017-11-27T03:28:31.122Z,7.76
2017-11-27T03:29:11.503Z,7.76
2017-11-27T03:29:52.104Z,7.63
2017-11-27T03:30:32.512Z,7.67
2017-11-27T03:31:13.204Z,7.69
2017-11-27T03:31:53.695Z,7.66
2017-11-27T03:32:34.096Z,7.73
2017-11-27T03:33:14.537Z,7.76
2017-11-27T03:33:55.142Z,7.74
2017-11-27T03:34:35.484Z,7.69
2017-11-27T03:35:15.882Z,7.69
2017-11-27T03:35:56.838Z,7.63
2017-11-27T03:36:37.187Z,7.58
2017-11-27T03:37:17.834Z,7.52
2017-11-27T03:37:58.338Z,7.45
2017-11-27T03:38:38.746Z,7.58
2017-11-27T03:39:19.455Z,7.57
2017-11-27T03:39:59.723Z,7.58
2017-11-27T03:40:40.409Z,7.54
2017-11-27T03:41:20.649Z,7.55
2017-11-27T03:42:01.074Z,7.55
2017-11-27T03:42:41.487Z,7.5
2017-11-27T03:43:21.909Z,7.55
2017-11-27T03:44:02.323Z,7.55
2017-11-27T03:44:42.763Z,7.52
2017-11-27T03:45:23.337Z,7.48
2017-11-27T03:46:03.767Z,7.47
2017-11-27T03:46:44.275Z,7.45
2017-11-27T03:47:24.646Z,7.37
2017-11-27T03:48:05.015Z,7.41
2017-11-27T03:48:45.434Z,7.33
2017-11-27T03:49:25.983Z,7.39
2017-11-27T03:50:06.413Z,7.37
2017-11-27T03:50:46.893Z,7.41
2017-11-27T03:51:27.300Z,7.44
2017-11-27T03:52:07.801Z,7.45
2017-11-27T03:52:48.146Z,7.54
2017-11-27T03:53:28.717Z,7.51
2017-11-27T03:54:09.051Z,7.55
2017-11-27T03:54:49.459Z,7.51
2017-11-27T03:55:29.869Z,7.55
2017-11-27T03:56:10.279Z,7.47
2017-11-27T03:56:50.722Z,7.48
2017-11-27T03:57:31.174Z,7.47
2017-11-27T03:58:11.594Z,7.51
2017-11-27T03:58:52.080Z,7.6
2017-11-27T03:59:32.374Z,7.57
2017-11-27T04:00:12.792Z,7.45
2017-11-27T04:00:53.415Z,7.51
2017-11-27T04:01:33.599Z,7.62
2017-11-27T04:41:13.989Z,6.81
2017-11-27T04:42:00.056Z,6.89
2017-11-27T04:42:40.684Z,6.73
2017-11-27T04:43:21.996Z,6.78
2017-11-27T04:44:02.693Z,6.68
2017-11-27T04:44:43.114Z,6.79
2017-11-27T04:45:23.931Z,6.75
2017-11-27T04:46:05.037Z,6.83
2017-11-27T04:46:45.056Z,6.89
2017-11-27T04:47:25.451Z,6.9
2017-11-27T04:48:06.857Z,6.89
2017-11-27T04:48:47.429Z,6.87
2017-11-27T04:49:28.188Z,6.9
2017-11-27T04:50:08.482Z,6.86
2017-11-27T04:50:48.710Z,6.91
2017-11-27T04:51:29.128Z,6.94
2017-11-27T04:52:09.477Z,6.93
2017-11-27T04:52:50.784Z,6.93
2017-11-27T04:53:31.089Z,6.91
2017-11-27T04:54:12.536Z,6.99
2017-11-27T04:54:52.505Z,7.08
2017-11-27T04:55:33.347Z,7.04
2017-11-27T04:56:14.115Z,7.09
2017-11-27T04:56:55.338Z,7.05
2017-11-27T04:57:36.100Z,7.05
2017-11-27T04:58:16.703Z,7.14
2017-11-27T04:58:57.090Z,7.24
2017-11-27T04:59:38.456Z,7.29
2017-11-27T05:00:22.255Z,7.23
2017-11-27T05:01:02.705Z,7.39
2017-11-27T05:01:43.200Z,7.5
2017-11-27T05:02:23.674Z,7.52
2017-11-27T05:03:04.211Z,7.55
2017-11-27T05:03:45.173Z,7.6
2017-11-27T05:04:26.533Z,7.48
2017-11-27T05:05:06.920Z,7.42
2017-11-27T05:05:47.492Z,7.5
2017-11-27T05:06:28.642Z,7.37
2017-11-27T05:07:09.430Z,7.47
2017-11-27T05:07:49.716Z,7.55
2017-11-27T05:08:30.129Z,7.52
2017-11-27T05:09:10.604Z,7.54
2017-11-27T05:09:51.448Z,7.62
2017-11-27T05:10:31.828Z,7.84
2017-11-27T05:11:13.097Z,7.84
2017-11-27T05:11:53.437Z,7.82
2017-11-27T05:12:34.980Z,7.69
2017-11-27T05:13:15.212Z,7.63
2017-11-27T05:13:55.802Z,7.62
2017-11-27T05:14:36.641Z,7.67
2017-11-27T05:15:18.088Z,7.62
2017-11-27T05:15:58.561Z,7.54
2017-11-27T05:16:39.125Z,7.57
2017-11-27T05:17:19.504Z,7.58
2017-11-27T05:18:00.746Z,7.76
2017-11-27T05:18:40.949Z,7.79
2017-11-27T05:19:21.559Z,7.76
2017-11-27T05:20:02.070Z,7.73
2017-11-27T05:20:42.508Z,7.7
2017-11-27T05:21:23.494Z,7.73
2017-11-27T05:22:04.205Z,7.58
2017-11-27T05:22:44.459Z,7.66
2017-11-27T05:23:25.251Z,7.66
2017-11-27T05:24:05.708Z,7.66
2017-11-27T05:24:47.437Z,7.73
2017-11-27T05:25:28.943Z,7.67
2017-11-27T05:26:09.141Z,7.67
2017-11-27T05:26:49.547Z,7.55
2017-11-27T05:27:30.863Z,7.57
2017-11-27T05:28:11.596Z,7.66
2017-11-27T05:28:52.174Z,7.57
2017-11-27T05:29:34.031Z,7.58
2017-11-27T05:30:14.572Z,7.62
2017-11-27T05:30:54.929Z,7.57
2017-11-27T05:31:36.535Z,7.47
2017-11-27T05:32:17.262Z,7.55
2017-11-27T05:32:58.627Z,7.62
2017-11-27T05:33:42.257Z,7.6
2017-11-27T05:34:23.028Z,7.54
2017-11-27T05:35:04.451Z,7.6
2017-11-27T05:35:44.719Z,7.5
2017-11-27T05:36:26.347Z,7.47
2017-11-27T05:37:08.781Z,7.58
2017-11-27T05:37:49.065Z,7.67
2017-11-27T05:38:30.780Z,7.62
2017-11-27T05:39:11.458Z,7.74
2017-11-27T05:39:51.654Z,7.79
2017-11-27T05:40:32.342Z,7.81
2017-11-27T05:41:12.696Z,7.82
2017-11-27T05:41:53.167Z,7.94
2017-11-27T05:42:33.664Z,7.95
2017-11-27T05:43:14.579Z,7.92
2017-11-27T05:43:55.547Z,7.92
2017-11-27T05:44:36.562Z,7.86
2017-11-27T05:45:17.606Z,7.79
2017-11-27T05:45:59.001Z,7.73
2017-11-27T05:46:39.533Z,7.67
2017-11-27T05:47:20.051Z,7.62
2017-11-27T05:48:00.552Z,7.55
2017-11-27T05:48:42.116Z,7.51
2017-11-27T05:49:23.515Z,7.36
2017-11-27T05:50:04.835Z,7.23
2017-11-27T05:50:44.841Z,7.33
2017-11-27T05:51:25.668Z,7.32
2017-11-27T05:52:06.933Z,7.5
2017-11-27T05:52:48.537Z,7.42
2017-11-27T05:53:29.643Z,7.32
2017-11-27T05:54:11.091Z,7.36
2017-11-27T05:54:51.892Z,7.47
2017-11-27T05:55:32.702Z,7.41
2017-11-27T05:56:13.265Z,7.42
2017-11-27T05:56:53.861Z,7.37
2017-11-27T05:57:34.953Z,7.47
2017-11-27T05:58:16.058Z,7.45
2017-11-27T05:58:56.799Z,7.39
2017-11-27T05:59:38.385Z,7.51
2017-11-27T06:00:19.474Z,7.55
2017-11-27T06:01:02.069Z,7.69
2017-11-27T06:01:42.626Z,7.63
2017-11-27T06:02:23.208Z,7.58
2017-11-27T06:03:03.864Z,7.66
2017-11-27T06:03:45.546Z,7.74
2017-11-27T06:04:29.265Z,7.79
2017-11-27T06:05:10.062Z,7.63
2017-11-27T06:05:50.686Z,7.5
2017-11-27T06:06:31.084Z,7.39
2017-11-27T06:07:11.932Z,7.23
2017-11-27T06:07:52.759Z,7.16
2017-11-27T06:08:34.716Z,7.19
2017-11-27T06:09:14.547Z,7.32
2017-11-27T06:09:56.085Z,7.32
2017-11-27T06:10:36.535Z,7.24
2017-11-27T06:11:17.272Z,7.3
2017-11-27T06:11:57.999Z,7.34
2017-11-27T06:12:38.691Z,7.34
2017-11-27T06:13:19.490Z,7.23
2017-11-27T06:14:01.239Z,7.21
2017-11-27T06:14:41.628Z,7.32
2017-11-27T06:15:22.383Z,7.18
2017-11-27T06:16:02.897Z,7.19
2017-11-27T06:16:43.396Z,7.15
2017-11-27T06:17:24.355Z,7.21
2017-11-27T06:18:04.703Z,7.24
2017-11-27T06:18:45.635Z,7.16
2017-11-27T06:19:26.049Z,7.12
2017-11-27T06:20:08.313Z,7.14
2017-11-27T06:20:49.416Z,7.09
2017-11-27T06:21:30.116Z,7
2017-11-27T06:22:10.622Z,7.01
2017-11-27T06:22:51.191Z,6.91
2017-11-27T06:23:31.846Z,6.83
2017-11-27T06:24:12.512Z,6.72
2017-11-27T06:24:53.264Z,6.64
2017-11-27T06:25:34.271Z,6.57
2017-11-27T06:26:15.202Z,6.64
2017-11-27T06:26:55.941Z,6.78
2017-11-27T06:27:36.728Z,6.93
2017-11-27T06:28:17.437Z,6.96
2017-11-27T06:28:57.768Z,6.96
2017-11-27T06:29:38.447Z,6.94
2017-11-27T06:30:19.697Z,6.9
2017-11-27T06:31:00.067Z,6.91
2017-11-27T06:31:40.563Z,6.94
2017-11-27T06:32:21.902Z,6.89
2017-11-27T06:33:02.923Z,6.79
2017-11-27T06:33:43.665Z,6.87
2017-11-27T06:34:24.368Z,6.83
2017-11-27T06:35:05.089Z,6.81
2017-11-27T06:35:45.816Z,6.91
2017-11-27T06:36:26.668Z,6.91
2017-11-27T06:37:07.039Z,6.93
2017-11-27T06:37:47.403Z,6.82
2017-11-27T06:38:28.234Z,6.89
2017-11-27T06:39:08.683Z,6.9
2017-11-27T06:39:49.220Z,6.91
2017-11-27T06:40:29.806Z,6.93
2017-11-27T06:41:10.656Z,7.08
2017-11-27T06:41:52.782Z,7.15
2017-11-27T06:42:33.964Z,7.23
2017-11-27T06:43:15.279Z,7.27
2017-11-27T06:43:56.500Z,7.5
2017-11-27T06:44:37.002Z,7.58
2017-11-27T06:45:19.005Z,7.67
2017-11-27T06:45:59.045Z,7.69
2017-11-27T06:46:39.607Z,7.81
2017-11-27T06:49:55.406Z,7.79
2017-11-27T06:51:28.060Z,7.66
2017-11-27T06:53:59.975Z,7.58
2017-11-27T06:54:39.207Z,7.57
2017-11-27T06:55:19.888Z,7.58
2017-11-27T06:56:03.381Z,7.57
2017-11-27T06:56:50.554Z,7.63
2017-11-27T06:57:32.098Z,7.66
2017-11-27T06:58:14.027Z,7.58
2017-11-27T06:58:55.113Z,7.5
2017-11-27T07:01:58.559Z,7.63
2017-11-27T07:02:48.225Z,7.63
2017-11-27T07:03:28.195Z,7.7
2017-11-27T07:04:09.139Z,7.62
2017-11-27T07:04:49.456Z,7.55
2017-11-27T07:05:29.962Z,7.57
2017-11-27T07:06:10.451Z,7.6
2017-11-27T07:06:50.980Z,7.77
2017-11-27T07:07:31.979Z,7.85
2017-11-27T07:08:12.949Z,7.81
2017-11-27T07:08:52.668Z,7.67
2017-11-27T07:09:35.159Z,7.79
2017-11-27T07:10:14.888Z,7.76
2017-11-27T07:10:59.026Z,7.81
2017-11-27T07:11:39.614Z,7.84
2017-11-27T07:12:20.067Z,7.81
2017-11-27T07:13:00.531Z,7.91
2017-11-27T07:13:41.129Z,7.95
2017-11-27T07:14:21.619Z,8.03
2017-11-27T07:15:02.860Z,8.25
2017-11-27T07:15:43.913Z,8.18
2017-11-27T07:16:24.192Z,8.2
2017-11-27T07:17:04.762Z,8.21
2017-11-27T07:17:45.149Z,8.2
2017-11-27T07:18:25.955Z,8.14
2017-11-27T07:19:07.903Z,8.22
2017-11-27T07:19:47.233Z,8.24
2017-11-27T07:20:28.281Z,8.07
2017-11-27T07:21:09.702Z,7.94
2017-11-27T07:21:50.113Z,7.95
2017-11-27T07:22:31.652Z,7.92
2017-11-27T07:23:12.078Z,7.94
2017-11-27T07:23:52.608Z,7.92
2017-11-27T07:24:33.418Z,8.09
2017-11-27T07:25:13.952Z,8.06
2017-11-27T07:25:54.755Z,8.14
2017-11-27T07:26:36.606Z,8.28
2017-11-27T07:27:17.102Z,8.29
2017-11-27T07:27:57.525Z,8.27
2017-11-27T07:28:41.004Z,8.47
2017-11-27T07:29:21.737Z,8.58
2017-11-27T07:30:02.986Z,8.52
2017-11-27T07:30:43.472Z,8.37
2017-11-27T07:31:24.537Z,8.27
2017-11-27T07:32:05.190Z,8.21
2017-11-27T07:32:46.176Z,8.07
2017-11-27T07:33:26.718Z,8.03
2017-11-27T07:34:07.647Z,7.79
2017-11-27T07:34:48.044Z,7.86
2017-11-27T07:35:28.469Z,7.82
2017-11-27T07:36:09.241Z,7.84
2017-11-27T07:36:49.785Z,7.85
2017-11-27T07:37:31.184Z,7.82
2017-11-27T07:38:12.113Z,7.82
2017-11-27T07:38:53.398Z,7.99
2017-11-27T07:39:34.101Z,8.02
2017-11-27T07:40:15.342Z,8.02
2017-11-27T07:40:55.460Z,7.94
2017-11-27T07:41:36.106Z,7.92
2017-11-27T07:42:17.596Z,7.96
2017-11-27T07:42:58.619Z,7.82
2017-11-27T07:43:39.333Z,7.82
2017-11-27T07:44:20.349Z,7.89
2017-11-27T07:45:01.169Z,7.85
2017-11-27T07:45:41.673Z,7.77
2017-11-27T07:46:22.687Z,7.95
2017-11-27T07:47:03.352Z,7.82
2017-11-27T07:47:44.109Z,7.79
2017-11-27T07:48:25.576Z,7.79
2017-11-27T07:49:06.850Z,7.85
2017-11-27T07:49:47.730Z,7.91
2017-11-27T07:50:29.993Z,7.86
2017-11-27T07:51:11.377Z,7.79
2017-11-27T07:51:52.634Z,7.84
2017-11-27T07:52:33.795Z,7.77
2017-11-27T07:53:15.439Z,7.88
2017-11-27T07:53:56.559Z,7.94
2017-11-27T07:54:38.243Z,7.94
2017-11-27T07:55:19.235Z,7.95
2017-11-27T07:56:01.037Z,8.06
2017-11-27T07:56:41.425Z,8.13
2017-11-27T07:57:22.411Z,8.31
2017-11-27T07:58:03.959Z,8.39
2017-11-27T07:58:45.050Z,8.5
2017-11-27T07:59:27.153Z,8.54
2017-11-27T08:00:08.164Z,8.54
2017-11-27T08:00:49.148Z,8.43
2017-11-27T08:01:30.612Z,8.49
2017-11-27T08:02:11.316Z,8.4
2017-11-27T08:02:52.910Z,8.42
2017-11-27T08:03:33.551Z,8.47
2017-11-27T08:04:14.036Z,8.57
2017-11-27T08:04:55.699Z,8.57
2017-11-27T08:05:38.314Z,8.52
2017-11-27T08:06:20.712Z,8.39
2017-11-27T08:07:01.972Z,8.5
2017-11-27T08:07:42.001Z,8.37
2017-11-27T08:08:23.836Z,8.47
2017-11-27T08:09:04.496Z,8.36
2017-11-27T08:09:45.502Z,8.37
2017-11-27T08:10:26.188Z,8.31
2017-11-27T08:11:06.985Z,8.43
2017-11-27T08:11:47.873Z,8.43
2017-11-27T08:12:28.427Z,8.5
2017-11-27T08:13:09.280Z,8.63
2017-11-27T08:17:26.451Z,8.76
2017-11-27T08:18:31.145Z,8.61
2017-11-27T08:19:36.408Z,8.85
2017-11-27T08:24:32.711Z,8.6
2017-11-27T08:25:13.797Z,8.61
2017-11-27T08:25:54.230Z,8.64
2017-11-27T08:26:34.794Z,8.7
2017-11-27T08:27:15.310Z,8.68
2017-11-27T08:27:58.282Z,8.73
2017-11-27T08:28:38.714Z,8.76
2017-11-27T08:29:19.109Z,8.49
2017-11-27T08:29:59.535Z,8.54
2017-11-27T08:30:40.051Z,8.5
2017-11-27T08:31:20.481Z,8.5
2017-11-27T08:32:00.909Z,8.5
2017-11-27T08:32:41.468Z,8.63
2017-11-27T08:33:21.913Z,8.58
2017-11-27T08:34:03.228Z,8.58
2017-11-27T08:34:43.028Z,8.57
2017-11-27T08:35:23.507Z,8.49
2017-11-27T08:36:04.162Z,8.47
2017-11-27T08:36:44.661Z,8.46
2017-11-27T08:37:25.175Z,8.47
2017-11-27T08:38:05.579Z,8.43
2017-11-27T08:38:46.015Z,8.46
2017-11-27T08:39:26.487Z,8.54
2017-11-27T08:40:06.837Z,8.78
2017-11-27T08:40:47.244Z,8.83
2017-11-27T08:41:27.699Z,8.88
2017-11-27T08:42:08.063Z,8.88
2017-11-27T08:42:48.459Z,8.93
2017-11-27T08:43:29.176Z,9.13
2017-11-27T08:44:09.672Z,9.1
2017-11-27T08:44:50.140Z,9.12
2017-11-27T08:45:30.327Z,9.12
2017-11-27T08:46:10.774Z,9.08
2017-11-27T08:46:51.165Z,8.91
2017-11-27T08:47:31.582Z,8.86
2017-11-27T08:48:11.993Z,8.94
2017-11-27T08:48:52.458Z,9.08
2017-11-27T08:49:32.905Z,8.94
2017-11-27T08:50:13.450Z,9.06
2017-11-27T08:53:10.517Z,9.13
2017-11-27T08:53:51.956Z,9.12
2017-11-27T08:54:32.524Z,9.24
2017-11-27T08:55:13.037Z,9.22
2017-11-27T08:55:53.488Z,9.22
2017-11-27T08:56:33.858Z,9.08
2017-11-27T08:57:14.288Z,9.06
2017-11-27T08:57:56.704Z,9.12
2017-11-27T08:58:37.549Z,9.2
2017-11-27T08:59:17.830Z,9.35
2017-11-27T08:59:58.251Z,9.34
2017-11-27T09:03:31.508Z,9.34
2017-11-27T09:07:23.539Z,9.34
2017-11-27T09:11:37.146Z,9.34
2017-11-27T09:12:18.266Z,9.37
2017-11-27T09:12:58.694Z,9.27
2017-11-27T09:13:39.544Z,9.3
2017-11-27T09:14:20.180Z,9.3
2017-11-27T09:15:00.659Z,9.31
2017-11-27T09:15:41.135Z,9.24
2017-11-27T09:16:21.590Z,9.16
2017-11-27T09:17:01.998Z,9.06
2017-11-27T09:17:42.453Z,9.1
2017-11-27T09:18:23.121Z,9.12
2017-11-27T09:19:03.819Z,9.08
2017-11-27T09:19:44.323Z,8.97
2017-11-27T09:20:24.702Z,8.89
2017-11-27T09:21:07.726Z,9
2017-11-27T09:21:48.173Z,9.04
2017-11-27T09:22:28.645Z,9.08
2017-11-27T09:23:09.277Z,9.1
2017-11-27T09:23:49.586Z,9.15
2017-11-27T09:24:30.156Z,9.17
2017-11-27T09:25:10.636Z,9.31
2017-11-27T09:25:51.056Z,9.16
2017-11-27T09:26:31.514Z,9.27
2017-11-27T09:27:11.931Z,9.23
2017-11-27T09:30:06.870Z,9.32
2017-11-27T09:30:49.274Z,9.23
2017-11-27T09:31:31.002Z,9.23
2017-11-27T09:32:11.582Z,9.08
2017-11-27T09:32:55.998Z,9.17
2017-11-27T09:33:36.539Z,9.26
2017-11-27T09:35:51.611Z,9.08
2017-11-27T09:36:33.663Z,9.06
2017-11-27T09:37:14.279Z,8.93
2017-11-27T09:37:55.140Z,8.93
2017-11-27T09:38:35.640Z,8.85
2017-11-27T09:39:16.252Z,8.86
2017-11-27T09:39:56.738Z,8.96
2017-11-27T09:40:38.037Z,8.79
2017-11-27T09:41:17.629Z,8.76
2017-11-27T09:41:58.550Z,8.97
2017-11-27T09:42:38.814Z,9.01
2017-11-27T09:43:21.779Z,8.94
2017-11-27T09:44:00.930Z,8.96
2017-11-27T09:44:41.361Z,8.86
2017-11-27T09:45:22.131Z,8.79
2017-11-27T09:46:02.272Z,8.71
2017-11-27T09:46:42.676Z,8.71
2017-11-27T09:47:23.220Z,8.7
2017-11-27T09:48:03.725Z,8.78
2017-11-27T09:48:44.047Z,8.64
2017-11-27T09:49:24.460Z,8.73
2017-11-27T09:50:05.064Z,8.82
2017-11-27T09:50:45.640Z,8.98
2017-11-27T09:51:26.114Z,9.06
2017-11-27T09:52:06.729Z,8.94
2017-11-27T09:52:47.106Z,8.78
2017-11-27T09:53:27.770Z,8.96
2017-11-27T09:54:08.212Z,8.98
2017-11-27T09:54:48.576Z,8.89
2017-11-27T09:55:29.002Z,8.96
2017-11-27T09:56:09.620Z,9.19
2017-11-27T09:56:49.998Z,9.12
2017-11-27T09:57:30.554Z,9.19
2017-11-27T09:58:10.911Z,9.24
2017-11-27T09:58:51.302Z,9.37
2017-11-27T09:59:31.725Z,9.34
2017-11-27T10:00:12.156Z,9.23
2017-11-27T10:00:52.654Z,9.38
2017-11-27T10:01:33.137Z,9.4
2017-11-27T10:02:13.649Z,9.27
2017-11-27T10:02:54.102Z,9.32
2017-11-27T10:41:40.099Z,8.61
2017-11-27T10:42:23.789Z,8.6
2017-11-27T10:45:05.611Z,8.67
2017-11-27T10:45:46.371Z,8.64
2017-11-27T10:46:31.583Z,8.65
2017-11-27T10:47:12.197Z,8.67
2017-11-27T10:47:53.461Z,8.68
2017-11-27T10:48:34.870Z,8.83
2017-11-27T10:49:15.347Z,8.91
2017-11-27T10:49:56.813Z,9
2017-11-27T10:50:37.964Z,8.91
2017-11-27T10:51:19.234Z,8.93
2017-11-27T10:52:00.240Z,8.97
2017-11-27T10:52:40.520Z,8.94
2017-11-27T10:53:22.230Z,8.94
2017-11-27T10:54:19.331Z,9
2017-11-27T10:54:59.756Z,9.1
2017-11-27T10:55:41.798Z,9.15
2017-11-27T10:56:23.704Z,9.08
2017-11-27T10:58:32.014Z,9.31
2017-11-27T10:59:29.737Z,9.34